createdAt,value
2018-05-24T00:02:02.349Z,1.90
2018-05-24T00:05:11.694Z,1.55
2018-05-24T00:08:21.129Z,2.97
2018-05-24T00:11:31.095Z,9.45
2018-05-24T00:14:46.385Z,1.40
2018-05-24T00:17:57.552Z,1.80
2018-05-24T00:21:07.007Z,1.42
2018-05-24T00:24:16.501Z,4.60
2018-05-24T00:27:26.493Z,2.15
2018-05-24T00:30:38.089Z,2.67
2018-05-24T00:33:47.916Z,4.45
2018-05-24T00:36:57.381Z,2.58
2018-05-24T00:40:07.033Z,1.08
2018-05-24T00:43:16.473Z,5.07
2018-05-24T00:46:27.456Z,1.58
2018-05-24T00:49:38.641Z,4.50
2018-05-24T00:52:48.021Z,1.92
2018-05-24T00:55:57.878Z,2.97
2018-05-24T00:59:07.564Z,1.60
2018-05-24T01:02:17.875Z,3.75
2018-05-24T01:05:28.034Z,7.05
2018-05-24T01:08:39.536Z,1.87
2018-05-24T01:11:48.976Z,3.67
2018-05-24T01:14:58.864Z,1.58
2018-05-24T01:18:08.342Z,2.25
2018-05-24T01:21:18.617Z,1.95
2018-05-24T01:24:29.182Z,2.65
2018-05-24T01:27:40.816Z,6.30
2018-05-24T01:30:50.391Z,3.00
2018-05-24T01:33:59.916Z,1.48
2018-05-24T01:37:27.596Z,2.35
2018-05-24T01:40:37.924Z,1.48
2018-05-24T01:43:47.822Z,2.12
2018-05-24T01:46:58.009Z,1.52
2018-05-24T01:50:08.600Z,2.10
2018-05-24T01:53:18.114Z,1.55
2018-05-24T01:56:27.818Z,2.70
2018-05-24T01:59:37.307Z,3.42
2018-05-24T02:02:47.673Z,5.75
2018-05-24T02:05:57.886Z,6.78
2018-05-24T02:09:07.273Z,1.77
2018-05-24T02:12:16.614Z,4.00
2018-05-24T02:15:26.740Z,3.72
2018-05-24T02:18:36.278Z,1.92
2018-05-24T02:21:46.140Z,3.53
2018-05-24T02:24:56.404Z,5.97
2018-05-24T02:28:06.624Z,2.35
2018-05-24T02:31:16.077Z,3.45
2018-05-24T02:34:25.517Z,1.55
2018-05-24T02:37:35.388Z,5.32
2018-05-24T02:40:45.073Z,2.95
2018-05-24T02:43:55.719Z,2.20
2018-05-24T02:47:05.160Z,5.37
2018-05-24T02:50:15.359Z,2.80
2018-05-24T02:53:25.739Z,5.90
2018-05-24T02:56:35.230Z,2.25
2018-05-24T02:59:45.421Z,2.92
2018-05-24T03:02:54.906Z,2.78
2018-05-24T03:06:04.399Z,3.67
2018-05-24T03:09:14.728Z,2.40
2018-05-24T03:12:24.240Z,4.20
2018-05-24T03:15:33.612Z,2.12
2018-05-24T03:18:43.054Z,3.30
2018-05-24T03:21:52.478Z,3.97
2018-05-24T03:25:01.948Z,2.05
2018-05-24T03:28:11.860Z,2.97
2018-05-24T03:31:21.672Z,5.53
2018-05-24T03:34:31.973Z,2.87
2018-05-24T03:37:42.455Z,4.82
2018-05-24T03:40:51.865Z,3.10
2018-05-24T03:44:01.221Z,2.90
2018-05-24T03:47:12.102Z,6.28
2018-05-24T03:50:23.418Z,3.42
2018-05-24T03:53:33.107Z,5.15
2018-05-24T03:56:43.497Z,4.70
2018-05-24T04:00:11.645Z,1.83
2018-05-24T04:03:38.964Z,3.65
2018-05-24T04:06:53.300Z,3.35
2018-05-24T04:10:03.217Z,1.70
2018-05-24T04:13:13.591Z,4.30
2018-05-24T04:16:23.842Z,2.97
2018-05-24T04:19:33.711Z,5.32
2018-05-24T04:22:43.174Z,3.75
2018-05-24T04:25:53.141Z,7.50
2018-05-24T04:29:03.450Z,5.90
2018-05-24T04:32:13.796Z,4.47
2018-05-24T04:35:23.564Z,6.72
2018-05-24T04:38:32.934Z,7.43
2018-05-24T04:41:43.146Z,4.18
2018-05-24T04:44:53.007Z,4.75
2018-05-24T04:48:03.315Z,9.90
2018-05-24T04:51:13.964Z,5.85
2018-05-24T04:54:23.902Z,3.42
2018-05-24T04:57:33.361Z,5.90
2018-05-24T05:00:42.912Z,3.25
2018-05-24T05:03:52.681Z,6.62
2018-05-24T05:07:02.267Z,5.90
2018-05-24T05:10:11.637Z,9.50
2018-05-24T05:13:21.129Z,3.67
2018-05-24T05:16:31.348Z,6.72
2018-05-24T05:19:41.064Z,6.87
2018-05-24T05:22:52.359Z,6.80
2018-05-24T05:26:01.955Z,10.90
2018-05-24T05:29:11.653Z,5.93
2018-05-24T05:32:21.505Z,6.78
2018-05-24T05:35:31.249Z,5.65
2018-05-24T05:38:42.067Z,6.25
2018-05-24T05:41:53.150Z,10.18
2018-05-24T05:45:02.656Z,9.95
2018-05-24T05:48:12.225Z,5.78
2018-05-24T05:51:21.659Z,8.50
2018-05-24T05:54:31.145Z,8.13
2018-05-24T05:57:41.344Z,2.83
2018-05-24T06:00:51.188Z,3.53
2018-05-24T06:04:00.572Z,3.75
2018-05-24T06:07:10.789Z,4.12
2018-05-24T06:10:21.100Z,8.30
2018-05-24T06:13:31.658Z,4.03
2018-05-24T06:16:41.867Z,2.97
2018-05-24T06:19:51.940Z,5.80
2018-05-24T06:23:01.292Z,4.95
2018-05-24T06:26:10.740Z,7.97
2018-05-24T06:29:20.090Z,4.78
2018-05-24T06:32:29.507Z,5.37
2018-05-24T06:35:39.096Z,4.70
2018-05-24T06:38:48.424Z,9.07
2018-05-24T06:41:58.477Z,8.27
2018-05-24T06:45:08.700Z,7.62
2018-05-24T06:48:18.041Z,5.28
2018-05-24T06:51:28.886Z,5.93
2018-05-24T06:54:39.170Z,6.28
2018-05-24T06:57:48.472Z,4.90
2018-05-24T07:00:58.553Z,3.30
2018-05-24T07:04:08.102Z,7.82
2018-05-24T07:07:18.476Z,10.18
2018-05-24T07:10:28.668Z,4.57
2018-05-24T07:13:38.373Z,4.37
2018-05-24T07:16:48.493Z,8.23
2018-05-24T07:19:58.771Z,5.22
2018-05-24T07:23:08.693Z,6.47
2018-05-24T07:26:18.126Z,6.72
2018-05-24T07:29:28.100Z,5.80
2018-05-24T07:32:37.553Z,8.98
2018-05-24T07:35:47.917Z,5.50
2018-05-24T07:38:59.037Z,5.10
2018-05-24T07:42:08.564Z,4.20
2018-05-24T07:45:18.308Z,4.18
2018-05-24T07:48:29.176Z,4.12
2018-05-24T07:51:39.399Z,5.60
2018-05-24T07:54:53.836Z,5.25
2018-05-24T07:58:03.745Z,6.55
2018-05-24T08:01:13.185Z,9.20
2018-05-24T08:04:22.743Z,5.45
2018-05-24T08:07:32.260Z,5.00
2018-05-24T08:10:42.657Z,6.90
2018-05-24T08:13:52.081Z,5.40
2018-05-24T08:17:02.258Z,4.95
2018-05-24T08:20:12.115Z,4.55
2018-05-24T08:23:21.653Z,6.70
2018-05-24T08:26:31.132Z,9.25
2018-05-24T08:29:41.039Z,6.40
2018-05-24T08:32:50.360Z,7.10
2018-05-24T08:36:01.904Z,5.87
2018-05-24T08:39:11.368Z,10.68
2018-05-24T08:42:21.772Z,9.50
2018-05-24T08:45:31.208Z,6.78
2018-05-24T08:48:40.669Z,12.68
2018-05-24T08:51:50.218Z,12.00
2018-05-24T08:54:59.623Z,8.30
2018-05-24T08:58:09.387Z,11.50
2018-05-24T09:01:18.994Z,5.10
2018-05-24T09:04:28.458Z,7.53
2018-05-24T09:07:38.026Z,8.43
2018-05-24T09:10:51.857Z,11.05
2018-05-24T09:14:04.064Z,9.80
2018-05-24T09:17:14.187Z,14.85
2018-05-24T09:20:24.468Z,6.40
2018-05-24T09:23:34.004Z,10.15
2018-05-24T09:26:43.464Z,8.13
2018-05-24T09:29:53.329Z,6.45
2018-05-24T09:33:06.248Z,7.15
2018-05-24T09:36:15.817Z,9.57
2018-05-24T09:39:25.739Z,9.23
2018-05-24T09:42:35.161Z,6.90
2018-05-24T09:45:44.860Z,9.82
2018-05-24T09:48:54.701Z,11.50
2018-05-24T09:52:06.377Z,8.82
2018-05-24T09:55:16.635Z,20.70
2018-05-24T09:58:26.203Z,9.63
2018-05-24T10:01:35.703Z,10.20
2018-05-24T10:04:46.074Z,24.80
2018-05-24T10:07:56.231Z,14.20
2018-05-24T10:11:07.489Z,17.15
2018-05-24T10:14:17.385Z,24.40
2018-05-24T10:17:27.621Z,6.93
2018-05-24T10:20:37.273Z,16.15
2018-05-24T10:23:47.192Z,15.50
2018-05-24T10:26:57.548Z,20.48
2018-05-24T10:30:08.568Z,22.05
2018-05-24T10:33:18.444Z,8.18
2018-05-24T10:36:28.804Z,10.50
2018-05-24T10:39:38.393Z,7.18
2018-05-24T10:42:48.578Z,10.57
2018-05-24T10:45:58.544Z,9.77
2018-05-24T10:49:09.479Z,11.82
2018-05-24T10:52:19.764Z,8.77
2018-05-24T10:55:29.205Z,8.15
2018-05-24T10:58:38.726Z,9.15
2018-05-24T11:01:49.016Z,7.70
2018-05-24T11:04:58.545Z,10.98
2018-05-24T11:08:10.462Z,11.77
2018-05-24T11:11:19.883Z,7.82
2018-05-24T11:14:29.332Z,21.25
2018-05-24T11:17:39.352Z,8.98
2018-05-24T11:20:49.020Z,11.05
2018-05-24T11:23:59.057Z,15.18
2018-05-24T11:27:08.585Z,14.35
2018-05-24T11:30:18.203Z,7.85
2018-05-24T11:33:27.687Z,7.40
2018-05-24T11:36:37.264Z,10.38
2018-05-24T11:39:47.722Z,14.52
2018-05-24T11:42:57.275Z,9.60
2018-05-24T11:46:07.574Z,9.10
2018-05-24T11:49:16.962Z,8.27
2018-05-24T11:52:26.556Z,7.90
2018-05-24T11:55:36.772Z,8.40
2018-05-24T11:58:47.156Z,7.53
2018-05-24T12:01:56.872Z,8.70
2018-05-24T12:05:07.356Z,9.02
2018-05-24T12:08:17.712Z,11.32
2018-05-24T12:11:27.670Z,17.55
2018-05-24T12:14:37.582Z,11.80
2018-05-24T12:17:47.972Z,7.10
2018-05-24T12:20:57.733Z,11.18
2018-05-24T12:24:07.716Z,8.07
2018-05-24T12:27:17.416Z,10.95
2018-05-24T12:30:26.943Z,9.93
2018-05-24T12:33:36.772Z,10.52
2018-05-24T12:36:46.905Z,8.20
2018-05-24T12:39:57.152Z,8.35
2018-05-24T12:43:07.027Z,9.35
2018-05-24T12:46:16.533Z,9.30
2018-05-24T12:49:26.211Z,10.75
2018-05-24T12:52:35.571Z,10.23
2018-05-24T12:55:45.141Z,12.25
2018-05-24T12:58:54.569Z,11.55
2018-05-24T13:02:03.966Z,11.85
2018-05-24T13:05:15.864Z,10.45
2018-05-24T13:08:25.741Z,9.77
2018-05-24T13:11:35.344Z,9.63
2018-05-24T13:14:45.654Z,10.02
2018-05-24T13:17:55.852Z,11.73
2018-05-24T13:21:05.323Z,10.60
2018-05-24T13:24:16.345Z,9.80
2018-05-24T13:27:26.651Z,10.07
2018-05-24T13:30:36.146Z,8.82
2018-05-24T13:33:45.700Z,9.73
2018-05-24T13:36:55.244Z,10.10
2018-05-24T13:40:05.588Z,11.32
2018-05-24T13:43:15.345Z,12.32
2018-05-24T13:46:24.943Z,14.68
2018-05-24T13:49:35.332Z,10.13
2018-05-24T13:52:44.721Z,10.85
2018-05-24T13:55:54.855Z,10.55
2018-05-24T13:59:04.646Z,14.87
2018-05-24T14:02:14.370Z,11.95
2018-05-24T14:05:24.608Z,11.10
2018-05-24T14:08:34.306Z,17.27
2018-05-24T14:11:43.720Z,12.43
2018-05-24T14:14:53.979Z,12.50
2018-05-24T14:18:04.253Z,14.38
2018-05-24T14:21:13.737Z,11.00
2018-05-24T14:24:23.649Z,13.57
2018-05-24T14:27:33.903Z,18.40
2018-05-24T14:30:44.072Z,16.23
2018-05-24T14:33:53.850Z,12.27
2018-05-24T14:37:03.845Z,13.77
2018-05-24T14:40:13.823Z,12.98
2018-05-24T14:43:24.152Z,17.30
2018-05-24T14:46:34.328Z,12.52
2018-05-24T14:49:44.625Z,14.57
2018-05-24T14:52:54.520Z,14.50
2018-05-24T14:56:04.725Z,19.40
2018-05-24T14:59:14.989Z,15.32
2018-05-24T15:02:29.370Z,15.15
2018-05-24T15:05:38.879Z,14.13
2018-05-24T15:08:48.847Z,16.27
2018-05-24T15:11:58.963Z,14.80
2018-05-24T15:15:08.896Z,16.65
2018-05-24T15:18:18.399Z,14.05
2018-05-24T15:21:27.818Z,13.02
2018-05-24T15:24:37.497Z,14.90
2018-05-24T15:27:46.888Z,18.05
2018-05-24T15:30:57.127Z,15.70
2018-05-24T15:34:07.420Z,13.38
2018-05-24T15:37:17.676Z,14.02
2018-05-24T15:40:27.503Z,13.90
2018-05-24T15:43:37.963Z,11.82
2018-05-24T15:46:48.193Z,13.23
2018-05-24T15:49:58.218Z,12.13
2018-05-24T15:53:09.162Z,13.25
2018-05-24T15:56:18.618Z,11.27
2018-05-24T15:59:28.889Z,13.38
2018-05-24T16:02:39.128Z,14.23
2018-05-24T16:05:49.469Z,10.70
2018-05-24T16:08:59.610Z,10.98
2018-05-24T16:12:08.892Z,11.57
2018-05-24T16:15:18.397Z,11.93
2018-05-24T16:18:27.957Z,11.55
2018-05-24T16:21:38.238Z,10.88
2018-05-24T16:24:52.208Z,17.80
2018-05-24T16:28:02.020Z,13.82
2018-05-24T16:31:11.712Z,11.80
2018-05-24T16:34:21.541Z,12.40
2018-05-24T16:37:31.409Z,11.52
2018-05-24T16:40:41.689Z,11.45
2018-05-24T16:43:51.994Z,12.45
2018-05-24T16:47:01.824Z,12.80
2018-05-24T16:50:12.217Z,11.07
2018-05-24T16:53:22.266Z,12.13
2018-05-24T16:56:31.688Z,11.90
2018-05-24T16:59:41.349Z,20.33
2018-05-24T17:02:51.401Z,12.65
2018-05-24T17:06:04.526Z,11.15
2018-05-24T17:09:15.129Z,12.32
2018-05-24T17:12:26.775Z,12.00
2018-05-24T17:15:37.122Z,11.38
2018-05-24T17:18:47.794Z,12.18
2018-05-24T17:21:58.872Z,10.73
2018-05-24T17:25:08.943Z,13.27
2018-05-24T17:28:18.452Z,11.20
2018-05-24T17:31:28.744Z,13.80
2018-05-24T17:34:40.097Z,12.02
2018-05-24T17:37:49.523Z,14.70
2018-05-24T17:40:59.477Z,12.00
2018-05-24T17:44:10.205Z,16.80
2018-05-24T17:47:19.752Z,12.80
2018-05-24T17:50:30.789Z,14.38
2018-05-24T17:53:40.851Z,12.75
2018-05-24T17:56:51.641Z,11.60
2018-05-24T18:00:01.125Z,13.32
2018-05-24T18:03:10.628Z,14.43
2018-05-24T18:06:20.864Z,12.23
2018-05-24T18:09:31.458Z,13.68
2018-05-24T18:12:40.927Z,13.02
2018-05-24T18:15:51.237Z,12.70
2018-05-24T18:19:01.893Z,16.25
2018-05-24T18:22:11.751Z,12.65
2018-05-24T18:25:22.031Z,12.55
2018-05-24T18:28:32.257Z,15.55
2018-05-24T18:31:41.725Z,13.95
2018-05-24T18:34:51.252Z,12.27
2018-05-24T18:38:05.290Z,10.68
2018-05-24T18:41:15.104Z,12.15
2018-05-24T18:44:24.864Z,11.27
2018-05-24T18:47:34.626Z,14.57
2018-05-24T18:50:44.546Z,12.55
2018-05-24T18:53:54.134Z,14.70
2018-05-24T18:57:06.440Z,12.98
2018-05-24T19:00:17.371Z,13.27
2018-05-24T19:03:34.528Z,15.25
2018-05-24T19:06:46.170Z,12.27
2018-05-24T19:09:57.690Z,13.52
2018-05-24T19:13:11.063Z,12.82
2018-05-24T19:16:21.779Z,13.13
2018-05-24T19:19:34.140Z,12.88
2018-05-24T19:22:51.650Z,12.73
2018-05-24T19:26:01.829Z,13.82
2018-05-24T19:29:15.021Z,13.40
2018-05-24T19:32:24.345Z,15.73
2018-05-24T19:35:45.301Z,13.38
2018-05-24T19:39:01.577Z,15.43
2018-05-24T19:42:14.486Z,12.13
2018-05-24T19:45:25.018Z,12.52
2018-05-24T19:48:35.384Z,15.60
2018-05-24T19:51:47.841Z,13.13
2018-05-24T19:55:05.234Z,13.55
2018-05-24T19:58:14.709Z,12.30
2018-05-24T20:01:30.928Z,14.90
2018-05-24T20:04:47.462Z,14.70
2018-05-24T20:08:07.050Z,17.15
2018-05-24T20:11:16.760Z,13.52
2018-05-24T20:14:26.600Z,15.45
2018-05-24T20:17:46.810Z,14.10
2018-05-24T20:21:00.183Z,17.02
2018-05-24T20:24:19.032Z,14.45
2018-05-24T20:27:33.632Z,14.13
2018-05-24T20:30:52.033Z,14.45
2018-05-24T20:34:01.423Z,15.48
2018-05-24T20:37:15.146Z,18.62
2018-05-24T20:40:27.588Z,14.38
2018-05-24T20:43:44.284Z,19.35
2018-05-24T20:46:54.026Z,14.98
2018-05-24T20:50:05.170Z,16.45
2018-05-24T20:53:15.512Z,16.80
2018-05-24T20:56:25.905Z,21.10
2018-05-24T20:59:38.176Z,17.58
2018-05-24T21:02:50.149Z,18.05
2018-05-24T21:06:01.931Z,19.95
2018-05-24T21:09:14.084Z,22.80
2018-05-24T21:12:29.299Z,22.50
2018-05-24T21:15:42.084Z,20.80
2018-05-24T21:18:53.775Z,26.83
2018-05-24T21:22:05.542Z,26.87
2018-05-24T21:25:15.817Z,33.83
2018-05-24T21:28:25.396Z,30.67
2018-05-24T21:31:36.543Z,28.95
2018-05-24T21:34:46.753Z,31.67
2018-05-24T21:37:56.336Z,31.95
2018-05-24T21:41:05.599Z,36.20
2018-05-24T21:44:15.020Z,31.27
2018-05-24T21:47:28.530Z,34.22
2018-05-24T21:50:38.637Z,34.60
2018-05-24T21:53:48.237Z,39.95
2018-05-24T21:56:57.740Z,34.63
2018-05-24T22:00:08.802Z,35.50
2018-05-24T22:03:18.194Z,37.50
2018-05-24T22:06:27.685Z,30.87
2018-05-24T22:09:38.333Z,33.80
2018-05-24T22:12:48.333Z,31.10
2018-05-24T22:15:59.494Z,30.53
2018-05-24T22:19:09.088Z,34.30
2018-05-24T22:22:19.348Z,29.50
2018-05-24T22:25:29.370Z,31.98
2018-05-24T22:28:40.059Z,31.08
2018-05-24T22:31:49.410Z,27.83
2018-05-24T22:34:59.414Z,29.33
2018-05-24T22:38:09.706Z,26.75
2018-05-24T22:41:19.263Z,26.73
2018-05-24T22:44:29.554Z,26.77
2018-05-24T22:47:41.750Z,24.85
2018-05-24T22:50:51.296Z,29.55
2018-05-24T22:54:00.723Z,27.42
2018-05-24T22:57:10.227Z,34.88
2018-05-24T23:00:19.755Z,31.40
2018-05-24T23:03:30.464Z,27.02
2018-05-24T23:06:41.516Z,29.27
2018-05-24T23:09:51.759Z,25.50
2018-05-24T23:13:02.077Z,23.05
2018-05-24T23:16:11.500Z,24.90
2018-05-24T23:19:20.860Z,23.77
2018-05-24T23:22:37.263Z,22.07
2018-05-24T23:25:46.989Z,20.57
2018-05-24T23:28:56.443Z,22.07
2018-05-24T23:32:05.969Z,23.17
2018-05-24T23:35:15.512Z,19.58
2018-05-24T23:38:25.048Z,23.57
2018-05-24T23:41:34.658Z,20.20
2018-05-24T23:44:44.513Z,21.13
2018-05-24T23:47:53.989Z,20.83
2018-05-24T23:51:03.647Z,20.30
2018-05-24T23:54:13.193Z,21.50
2018-05-24T23:57:23.532Z,23.20
